Time;durP1;ratioP1;P1;durP2;ratioP2;P2;SDS_P1;SDS_P2;PMS_P1;PMS_P2;Temp;Humidity;BMP_temperature;BMP_pressure;BME280_temperature;BME280_humidity;BME280_pressure;Samples;Min_cycle;Max_cycle;Signal;HPM_P1;HPM_P2
2022/08/25 00:00:28;;;;;;;5.00;4.60;;;23.30;77.20;;;;;;5054798;28;20935;-75
2022/08/25 00:02:59;;;;;;;5.53;5.03;;;23.30;78.10;;;;;;5055969;28;20528;-75
2022/08/25 00:05:30;;;;;;;4.70;4.27;;;23.20;77.70;;;;;;5056000;28;20845;-76
2022/08/25 00:07:59;;;;;;;6.47;4.80;;;23.20;77.80;;;;;;5055929;28;20458;-75
2022/08/25 00:10:28;;;;;;;4.97;4.47;;;23.20;77.90;;;;;;5054958;28;20802;-74
2022/08/25 00:12:56;;;;;;;6.53;4.47;;;23.10;78.00;;;;;;5055775;28;20430;-75
2022/08/25 00:15:24;;;;;;;5.00;4.50;;;23.10;78.10;;;;;;5056293;28;20440;-74
2022/08/25 00:17:53;;;;;;;8.10;5.60;;;23.10;78.30;;;;;;5054415;28;20465;-75
2022/08/25 00:20:22;;;;;;;6.50;5.03;;;23.00;78.30;;;;;;5055663;28;20426;-75
2022/08/25 00:22:50;;;;;;;5.20;4.70;;;23.00;78.60;;;;;;5054350;28;20484;-75
2022/08/25 00:25:19;;;;;;;5.50;4.67;;;22.90;78.60;;;;;;5056017;28;20509;-75
2022/08/25 00:27:47;;;;;;;5.53;4.47;;;22.90;78.80;;;;;;5056421;28;20457;-74
2022/08/25 00:30:17;;;;;;;5.20;4.70;;;22.90;78.90;;;;;;5058650;28;20442;-74
2022/08/25 00:32:46;;;;;;;5.03;4.63;;;22.80;79.10;;;;;;5057836;28;20802;-74
2022/08/25 00:35:26;;;;;;;5.67;4.30;;;22.80;79.20;;;;;;5056454;28;20441;-75
2022/08/25 00:37:54;;;;;;;5.97;5.47;;;22.70;79.40;;;;;;5055634;28;21058;-74
2022/08/25 00:40:24;;;;;;;5.33;4.60;;;22.70;79.40;;;;;;5054463;28;20948;-74
2022/08/25 00:42:53;;;;;;;5.23;4.63;;;22.70;79.60;;;;;;5055721;28;20508;-75
2022/08/25 00:45:21;;;;;;;5.97;4.77;;;22.60;79.60;;;;;;5055237;28;20939;-74
2022/08/25 00:47:50;;;;;;;5.90;5.30;;;22.60;79.80;;;;;;5053877;28;20473;-74
2022/08/25 00:50:19;;;;;;;5.30;4.80;;;22.60;79.90;;;;;;5055215;28;20857;-74
2022/08/25 00:52:54;;;;;;;6.07;5.57;;;22.50;80.00;;;;;;5055726;28;20891;-75
2022/08/25 00:55:25;;;;;;;5.27;4.63;;;22.50;80.20;;;;;;5055391;28;20415;-73
2022/08/25 00:57:57;;;;;;;6.50;5.03;;;22.40;80.40;;;;;;5054907;28;21043;-75
2022/08/25 01:00:29;;;;;;;6.20;4.83;;;22.40;80.60;;;;;;5055421;28;20479;-75
2022/08/25 01:02:57;;;;;;;6.47;5.20;;;22.40;80.80;;;;;;5054088;28;20503;-75
2022/08/25 01:05:26;;;;;;;5.47;4.97;;;22.30;81.00;;;;;;5055211;28;20484;-75
2022/08/25 01:07:58;;;;;;;6.50;5.20;;;22.30;81.70;;;;;;5055209;28;20494;-75
2022/08/25 01:10:28;;;;;;;6.27;5.67;;;22.30;81.30;;;;;;5054854;28;20534;-75
2022/08/25 01:13:01;;;;;;;5.80;5.17;;;22.30;81.50;;;;;;5054775;28;20822;-75
2022/08/25 01:15:30;;;;;;;6.60;5.80;;;22.30;81.70;;;;;;5053774;28;20444;-77
2022/08/25 01:17:59;;;;;;;6.17;5.50;;;22.20;81.70;;;;;;5054513;28;20469;-74
2022/08/25 01:20:31;;;;;;;6.50;5.80;;;22.20;81.80;;;;;;5053503;28;20438;-75
2022/08/25 01:23:01;;;;;;;7.57;5.23;;;22.20;81.90;;;;;;5054595;28;20473;-75
2022/08/25 01:25:43;;;;;;;5.80;5.13;;;22.20;82.00;;;;;;5054450;28;20908;-74
2022/08/25 01:28:11;;;;;;;5.80;5.30;;;22.10;82.10;;;;;;5054346;28;20548;-75
2022/08/25 01:30:41;;;;;;;5.90;5.40;;;22.10;82.20;;;;;;5054637;28;20537;-74
2022/08/25 01:33:11;;;;;;;5.90;5.20;;;22.00;82.30;;;;;;5053006;28;20442;-74
2022/08/25 01:36:23;;;;;;;7.10;6.40;;;22.00;82.40;;;;;;5054325;28;20868;-74
2022/08/25 01:39:02;;;;;;;6.37;5.77;;;22.00;82.60;;;;;;5054147;28;20458;-74
2022/08/25 01:41:40;;;;;;;6.47;5.87;;;21.90;82.60;;;;;;5054415;28;20437;-75
2022/08/25 01:44:34;;;;;;;6.20;5.33;;;21.90;82.90;;;;;;5054262;28;20891;-74
2022/08/25 01:50:43;;;;;;;7.07;6.43;;;21.80;83.50;;;;;;5054272;28;20530;-74
2022/08/25 01:53:32;;;;;;;7.23;6.53;;;21.70;83.50;;;;;;5054508;28;20502;-75
2022/08/25 01:56:19;;;;;;;7.40;6.27;;;21.70;83.80;;;;;;5055937;28;20856;-75
2022/08/25 01:59:15;;;;;;;7.63;6.53;;;21.70;83.90;;;;;;5054808;28;20461;-74
2022/08/25 02:01:51;;;;;;;11.70;6.80;;;21.60;84.10;;;;;;5054182;28;20477;-74
2022/08/25 02:04:28;;;;;;;6.63;5.90;;;21.60;84.10;;;;;;5052493;28;20458;-74
2022/08/25 02:06:56;;;;;;;7.00;6.30;;;21.60;84.30;;;;;;5053690;28;20430;-75
2022/08/25 02:09:24;;;;;;;8.53;7.30;;;21.50;84.50;;;;;;5053687;28;20446;-75
2022/08/25 02:11:55;;;;;;;7.27;5.97;;;21.50;84.70;;;;;;5052275;28;20928;-74
2022/08/25 02:14:42;;;;;;;7.30;6.60;;;21.50;84.90;;;;;;5053600;28;20517;-75
2022/08/25 02:17:41;;;;;;;7.50;6.80;;;21.50;85.10;;;;;;5053703;28;20503;-76
2022/08/25 02:20:10;;;;;;;7.57;6.80;;;21.40;85.30;;;;;;5052309;28;20525;-74
2022/08/25 02:22:38;;;;;;;7.70;7.00;;;21.40;85.30;;;;;;5053800;28;20458;-75
2022/08/25 02:25:11;;;;;;;6.90;6.30;;;21.30;85.50;;;;;;5053966;28;20428;-75
2022/08/25 02:27:41;;;;;;;6.80;6.20;;;21.30;85.70;;;;;;5053451;28;20462;-74
2022/08/25 02:30:10;;;;;;;7.03;6.47;;;21.30;86.00;;;;;;5053999;28;20441;-75
2022/08/25 02:32:38;;;;;;;6.87;6.27;;;21.30;86.20;;;;;;5053602;28;20438;-74
2022/08/25 02:35:07;;;;;;;9.23;6.60;;;21.20;86.20;;;;;;5052068;28;20804;-75
2022/08/25 02:37:36;;;;;;;7.10;6.50;;;21.20;86.50;;;;;;5053456;28;20865;-75
2022/08/25 02:40:06;;;;;;;7.70;6.60;;;21.20;86.70;;;;;;5053236;28;20445;-74
2022/08/25 02:42:34;;;;;;;8.97;7.53;;;21.10;86.80;;;;;;5054126;28;20430;-75
2022/08/25 02:45:06;;;;;;;8.13;7.27;;;21.10;87.00;;;;;;5053421;28;20558;-74
2022/08/25 02:47:35;;;;;;;7.90;7.20;;;21.10;87.10;;;;;;5051957;28;20493;-75
2022/08/25 02:50:04;;;;;;;7.60;6.90;;;21.10;87.30;;;;;;5053353;28;20875;-75
2022/08/25 02:52:33;;;;;;;8.30;7.10;;;21.00;87.30;;;;;;5051925;28;20438;-74
2022/08/25 02:55:05;;;;;;;7.97;7.27;;;21.00;87.60;;;;;;5051987;28;20438;-74
2022/08/25 02:57:34;;;;;;;8.73;7.57;;;21.00;87.70;;;;;;5053313;28;20450;-74
2022/08/25 03:00:05;;;;;;;8.40;7.50;;;20.90;87.80;;;;;;5051850;28;20450;-74
2022/08/25 03:02:33;;;;;;;8.83;7.83;;;20.90;88.00;;;;;;5051839;28;20442;-74
2022/08/25 03:05:02;;;;;;;12.00;8.10;;;20.90;88.20;;;;;;5051791;28;20537;-75
2022/08/25 03:07:30;;;;;;;8.30;7.53;;;20.90;88.40;;;;;;5052906;28;20996;-74
2022/08/25 03:10:06;;;;;;;8.10;7.40;;;20.90;88.70;;;;;;5051720;28;20442;-74
2022/08/25 03:12:34;;;;;;;9.40;7.80;;;20.90;88.90;;;;;;5053162;28;20907;-75
2022/08/25 03:15:04;;;;;;;8.60;7.80;;;20.80;89.00;;;;;;5052934;28;20434;-74
2022/08/25 03:17:39;;;;;;;8.93;8.03;;;20.80;89.80;;;;;;5053102;28;20460;-75
2022/08/25 03:20:12;;;;;;;9.27;8.47;;;20.80;89.40;;;;;;5053643;28;20422;-74
2022/08/25 03:22:41;;;;;;;10.17;8.43;;;20.80;89.60;;;;;;5052863;28;20438;-74
2022/08/25 03:27:55;;;;;;;10.43;9.20;;;20.80;90.00;;;;;;5055400;28;20560;-74
2022/08/25 03:30:26;;;;;;;9.40;8.50;;;20.70;90.00;;;;;;5055679;28;20480;-74
2022/08/25 03:32:55;;;;;;;10.03;9.13;;;20.70;90.20;;;;;;5056588;28;20950;-74
2022/08/25 03:35:23;;;;;;;9.23;8.43;;;20.70;90.30;;;;;;5056721;28;20430;-75
2022/08/25 03:37:55;;;;;;;10.40;8.70;;;20.70;90.30;;;;;;5055165;28;20893;-75
2022/08/25 03:40:24;;;;;;;9.47;8.67;;;20.70;90.50;;;;;;5056439;28;20922;-75
2022/08/25 03:42:52;;;;;;;10.17;9.27;;;20.60;90.50;;;;;;5056523;28;20488;-74
2022/08/25 03:45:21;;;;;;;10.10;9.30;;;20.60;90.60;;;;;;5055014;28;20481;-75
2022/08/25 03:47:52;;;;;;;10.97;9.90;;;20.60;90.70;;;;;;5056440;28;20492;-74
2022/08/25 03:50:22;;;;;;;11.03;9.93;;;20.60;90.90;;;;;;5056536;28;20418;-74
2022/08/25 03:52:56;;;;;;;10.90;9.90;;;20.50;90.90;;;;;;5056140;28;20434;-75
2022/08/25 03:55:26;;;;;;;11.30;10.30;;;20.50;91.00;;;;;;5054913;28;20516;-75
2022/08/25 03:57:56;;;;;;;13.87;11.30;;;20.50;91.10;;;;;;5056261;28;20450;-73
2022/08/25 04:00:24;;;;;;;11.50;10.30;;;20.50;91.20;;;;;;5054786;28;20466;-74
2022/08/25 04:02:53;;;;;;;11.97;10.87;;;20.50;91.30;;;;;;5054698;28;20444;-73
2022/08/25 04:05:22;;;;;;;14.03;10.97;;;20.40;91.40;;;;;;5054598;28;20465;-74
2022/08/25 04:07:54;;;;;;;11.27;10.23;;;20.40;91.60;;;;;;5056143;28;20556;-73
2022/08/25 04:10:22;;;;;;;11.60;10.47;;;20.40;91.70;;;;;;5054856;28;20438;-75
2022/08/25 04:12:50;;;;;;;12.43;11.40;;;20.40;92.10;;;;;;5056048;28;20438;-74
2022/08/25 04:15:19;;;;;;;12.80;11.60;;;20.40;92.00;;;;;;5055812;28;20863;-74
2022/08/25 04:17:47;;;;;;;12.07;11.07;;;20.30;92.10;;;;;;5055662;28;20971;-74
2022/08/25 04:20:21;;;;;;;10.93;10.03;;;20.30;92.30;;;;;;5054562;28;20469;-74
2022/08/25 04:22:49;;;;;;;11.83;10.63;;;20.30;92.70;;;;;;5055803;28;20464;-74
2022/08/25 04:25:18;;;;;;;12.83;11.73;;;20.30;92.60;;;;;;5056154;28;20454;-73
2022/08/25 04:27:46;;;;;;;12.20;11.10;;;20.30;92.70;;;;;;5055754;28;20531;-74
2022/08/25 04:30:15;;;;;;;13.37;12.27;;;20.30;92.90;;;;;;5056141;28;20879;-74
2022/08/25 04:32:43;;;;;;;13.97;12.77;;;20.30;93.00;;;;;;5055699;28;20865;-74
2022/08/25 04:35:11;;;;;;;13.50;12.40;;;20.30;93.10;;;;;;5054180;28;20438;-74
2022/08/25 04:37:41;;;;;;;13.20;11.97;;;20.20;93.20;;;;;;5055292;28;20484;-75
2022/08/25 04:40:11;;;;;;;13.47;12.37;;;20.30;93.40;;;;;;5055310;28;20438;-74
2022/08/25 04:42:39;;;;;;;13.97;12.77;;;20.30;93.50;;;;;;5055338;28;20472;-75
2022/08/25 04:45:08;;;;;;;14.80;13.60;;;20.20;93.60;;;;;;5055438;28;20470;-75
2022/08/25 04:47:40;;;;;;;15.50;13.90;;;20.20;93.80;;;;;;5055151;28;20849;-73
2022/08/25 04:50:09;;;;;;;13.80;12.60;;;20.20;94.00;;;;;;5055498;28;20442;-75
2022/08/25 04:52:37;;;;;;;14.30;13.10;;;20.20;94.00;;;;;;5055293;28;20434;-74
2022/08/25 04:55:07;;;;;;;14.00;12.70;;;20.20;94.20;;;;;;5058750;28;20973;-73
2022/08/25 04:57:36;;;;;;;15.60;14.20;;;20.20;94.30;;;;;;5055082;28;20458;-73
2022/08/25 05:00:06;;;;;;;14.07;12.80;;;20.20;94.70;;;;;;5055375;28;20549;-73
2022/08/25 05:02:35;;;;;;;14.63;13.40;;;20.20;94.60;;;;;;5055312;28;20441;-74
2022/08/25 05:05:03;;;;;;;13.50;12.20;;;20.20;94.90;;;;;;5055100;28;20982;-74
2022/08/25 05:07:31;;;;;;;15.90;14.30;;;20.20;94.90;;;;;;5055367;28;20963;-74
2022/08/25 05:09:59;;;;;;;15.43;14.13;;;20.20;95.10;;;;;;5056045;28;20448;-74
2022/08/25 05:12:30;;;;;;;16.10;14.70;;;20.20;95.30;;;;;;5056234;28;20438;-74
2022/08/25 05:15:48;;;;;;;15.30;13.83;;;20.20;95.50;;;;;;5054561;28;20437;-74
2022/08/25 05:17:48;;;;;;;16.00;14.40;;;20.30;95.70;;;;;;5054663;28;20465;-75
2022/08/25 05:20:23;;;;;;;19.00;15.73;;;20.20;95.80;;;;;;5055084;28;20418;-75
2022/08/25 05:22:51;;;;;;;17.03;15.57;;;20.30;96.00;;;;;;5054611;28;20457;-75
2022/08/25 05:25:19;;;;;;;16.83;15.43;;;20.30;96.50;;;;;;5053325;28;20531;-73
2022/08/25 05:27:49;;;;;;;18.17;16.33;;;20.30;96.50;;;;;;5054365;28;20507;-73
2022/08/25 05:30:17;;;;;;;17.20;15.60;;;20.30;96.70;;;;;;5054487;28;20856;-73
2022/08/25 05:32:46;;;;;;;16.70;15.20;;;20.30;96.90;;;;;;5054486;28;20936;-73
2022/08/25 05:35:14;;;;;;;16.83;15.33;;;20.30;97.20;;;;;;5054625;28;20841;-74
2022/08/25 05:37:43;;;;;;;17.33;15.63;;;20.30;97.40;;;;;;5054177;28;20454;-74
2022/08/25 05:40:11;;;;;;;16.90;15.40;;;20.40;97.60;;;;;;5054727;28;20438;-75
2022/08/25 05:42:39;;;;;;;18.00;16.50;;;20.40;97.80;;;;;;5054311;28;20513;-74
2022/08/25 05:45:10;;;;;;;19.17;17.43;;;20.40;98.00;;;;;;5054511;28;21169;-74
2022/08/25 05:47:47;;;;;;;17.07;15.57;;;20.40;98.30;;;;;;5053762;28;20457;-73
2022/08/25 05:50:16;;;;;;;18.00;16.30;;;20.40;98.50;;;;;;5054393;28;20438;-73
2022/08/25 05:52:45;;;;;;;17.70;16.00;;;20.40;98.70;;;;;;5054335;28;20951;-73
2022/08/25 05:55:14;;;;;;;17.33;15.60;;;20.50;99.00;;;;;;5054308;28;20985;-75
2022/08/25 05:57:42;;;;;;;20.90;18.90;;;20.50;99.20;;;;;;5053753;28;20521;-73
2022/08/25 06:00:13;;;;;;;19.00;17.20;;;20.60;99.50;;;;;;5054294;28;20438;-73
2022/08/25 06:02:42;;;;;;;17.13;15.57;;;20.60;99.70;;;;;;5054237;28;20517;-75
2022/08/25 06:05:13;;;;;;;17.70;16.10;;;20.70;99.90;;;;;;5054297;28;20470;-74
2022/08/25 06:07:41;;;;;;;19.50;17.70;;;20.70;99.90;;;;;;5054039;28;20485;-74
2022/08/25 06:10:12;;;;;;;18.63;16.83;;;20.90;99.90;;;;;;5052570;28;20451;-73
2022/08/25 06:12:43;;;;;;;17.13;15.43;;;21.10;99.90;;;;;;5052634;28;20426;-73
2022/08/25 06:15:14;;;;;;;19.10;17.40;;;21.30;99.90;;;;;;5052337;28;20952;-74
2022/08/25 06:17:42;;;;;;;17.17;15.57;;;21.50;99.90;;;;;;5053456;28;20963;-74
2022/08/25 06:20:13;;;;;;;16.63;15.27;;;21.70;99.90;;;;;;5052551;28;20979;-74
2022/08/25 06:22:42;;;;;;;16.07;14.53;;;22.00;99.90;;;;;;5053683;28;20426;-74
2022/08/25 06:25:13;;;;;;;17.07;15.47;;;22.20;99.90;;;;;;5053530;28;20504;-74
2022/08/25 06:27:41;;;;;;;18.20;16.23;;;22.40;99.90;;;;;;5052284;28;20514;-73
2022/08/25 06:30:15;;;;;;;17.33;15.83;;;22.60;99.90;;;;;;5053625;28;20456;-74
2022/08/25 06:32:44;;;;;;;15.87;14.47;;;22.80;99.90;;;;;;5052344;28;20472;-73
2022/08/25 06:35:14;;;;;;;16.40;15.00;;;23.00;99.90;;;;;;5053818;28;20792;-75
2022/08/25 06:37:43;;;;;;;15.67;14.37;;;23.20;99.90;;;;;;5053752;28;20533;-73
2022/08/25 06:40:12;;;;;;;14.63;13.53;;;23.40;99.90;;;;;;5053211;28;20452;-73
2022/08/25 06:42:41;;;;;;;16.87;15.20;;;23.60;99.90;;;;;;5053437;28;20939;-72
2022/08/25 06:45:09;;;;;;;16.13;14.73;;;23.80;99.90;;;;;;5053250;28;20487;-73
2022/08/25 06:47:39;;;;;;;15.20;13.70;;;24.00;99.90;;;;;;5053367;28;20458;-73
2022/08/25 06:50:08;;;;;;;15.77;14.40;;;24.20;99.90;;;;;;5053352;28;20434;-73
2022/08/25 06:52:36;;;;;;;15.87;14.40;;;24.30;99.90;;;;;;5053555;28;20438;-73
2022/08/25 06:55:06;;;;;;;16.33;14.90;;;24.50;99.90;;;;;;5053308;28;20538;-73
2022/08/25 06:57:34;;;;;;;18.60;15.53;;;24.70;99.90;;;;;;5053161;28;20527;-73
2022/08/25 07:00:03;;;;;;;15.90;14.60;;;24.80;99.70;;;;;;5055388;28;20438;-74
2022/08/25 07:02:32;;;;;;;16.30;14.83;;;25.00;99.60;;;;;;5057774;28;20473;-73
2022/08/25 07:05:04;;;;;;;16.70;15.37;;;25.20;99.40;;;;;;5057716;28;20418;-73
2022/08/25 07:07:35;;;;;;;15.83;14.67;;;25.30;99.20;;;;;;5057864;28;20460;-73
2022/08/25 07:10:11;;;;;;;15.20;13.87;;;25.40;98.90;;;;;;5057626;28;20500;-73
2022/08/25 07:12:40;;;;;;;17.40;15.80;;;25.50;98.80;;;;;;5057270;28;20434;-75
2022/08/25 07:15:10;;;;;;;15.53;14.13;;;25.60;98.70;;;;;;5057439;28;20434;-74
2022/08/25 07:17:47;;;;;;;17.33;15.77;;;25.80;98.60;;;;;;5057547;28;20458;-74
2022/08/25 07:20:18;;;;;;;16.57;14.97;;;25.90;98.50;;;;;;5057003;28;20470;-74
2022/08/25 07:22:47;;;;;;;14.77;13.47;;;26.00;98.40;;;;;;5057358;28;20544;-74
2022/08/25 07:25:15;;;;;;;14.70;13.37;;;26.20;98.40;;;;;;5056856;28;20526;-74
2022/08/25 07:27:45;;;;;;;15.80;14.30;;;26.40;98.30;;;;;;5056781;28;20453;-75
2022/08/25 07:30:14;;;;;;;15.60;14.30;;;26.40;98.10;;;;;;5057345;28;20441;-74
2022/08/25 07:32:42;;;;;;;15.57;14.07;;;26.60;98.00;;;;;;5055506;28;20537;-73
2022/08/25 07:35:16;;;;;;;14.60;13.30;;;26.70;97.80;;;;;;5055135;28;20469;-74
2022/08/25 07:37:49;;;;;;;14.37;12.97;;;26.80;97.60;;;;;;5056985;28;20467;-74
2022/08/25 07:40:20;;;;;;;13.80;12.70;;;26.90;97.60;;;;;;5057201;28;20899;-75
2022/08/25 07:42:49;;;;;;;19.33;14.13;;;27.00;97.50;;;;;;5056854;28;20476;-76
2022/08/25 07:45:18;;;;;;;16.57;14.83;;;27.00;97.20;;;;;;5056745;28;21042;-76
2022/08/25 07:47:50;;;;;;;14.50;13.10;;;27.10;97.00;;;;;;5056773;28;20884;-76
2022/08/25 07:50:19;;;;;;;15.40;14.20;;;27.10;97.00;;;;;;5057049;28;20418;-76
2022/08/25 07:52:50;;;;;;;15.40;13.40;;;27.20;96.90;;;;;;5057471;28;20551;-75
2022/08/25 07:55:23;;;;;;;15.40;14.00;;;27.20;96.80;;;;;;5055367;28;20454;-75
2022/08/25 07:57:51;;;;;;;16.47;14.03;;;27.30;96.70;;;;;;5056299;28;20445;-76
2022/08/25 08:00:26;;;;;;;16.33;13.73;;;27.30;96.60;;;;;;5057002;28;20428;-75
2022/08/25 08:02:54;;;;;;;13.97;12.97;;;27.40;96.60;;;;;;5057084;28;20428;-76
2022/08/25 08:05:23;;;;;;;16.70;15.40;;;27.40;96.60;;;;;;5054950;28;20549;-76
2022/08/25 08:07:53;;;;;;;15.13;13.67;;;27.40;96.80;;;;;;5056449;28;20501;-76
2022/08/25 08:10:24;;;;;;;14.53;13.23;;;27.50;96.50;;;;;;5056302;28;20430;-76
2022/08/25 08:13:12;;;;;;;14.87;13.47;;;27.60;96.40;;;;;;5057017;22;20490;-76
2022/08/25 08:15:46;;;;;;;13.60;12.17;;;27.70;96.30;;;;;;5035421;28;20449;-74
2022/08/25 08:18:15;;;;;;;13.00;11.90;;;27.70;96.20;;;;;;5034877;28;20459;-75
2022/08/25 08:20:46;;;;;;;14.17;12.57;;;27.70;96.20;;;;;;5035887;28;20486;-77
2022/08/25 08:23:16;;;;;;;13.93;12.73;;;27.80;96.20;;;;;;5034881;28;20449;-76
2022/08/25 08:25:45;;;;;;;15.03;13.80;;;27.90;96.20;;;;;;5036340;28;20549;-75
2022/08/25 08:28:13;;;;;;;13.63;12.40;;;28.00;96.20;;;;;;5035905;28;20479;-76
2022/08/25 08:30:41;;;;;;;14.50;13.20;;;28.00;96.10;;;;;;5034617;28;20473;-77
2022/08/25 08:33:23;;;;;;;14.93;13.70;;;28.10;96.00;;;;;;5036260;28;20431;-76
2022/08/25 08:36:06;;;;;;;13.40;11.80;;;28.20;95.80;;;;;;5036791;28;20454;-76
2022/08/25 08:38:38;;;;;;;13.00;11.90;;;28.20;95.80;;;;;;5035780;28;20455;-77
2022/08/25 08:44:28;;;;;;;13.40;12.13;;;28.30;95.60;;;;;;5035803;28;20454;-77
2022/08/25 08:47:04;;;;;;;13.90;12.80;;;28.40;95.50;;;;;;5036049;28;20450;-76
2022/08/25 08:49:46;;;;;;;13.83;12.63;;;28.40;95.40;;;;;;5034542;28;20541;-76
2022/08/25 08:52:19;;;;;;;12.47;11.57;;;28.40;95.30;;;;;;5035930;28;20462;-76
2022/08/25 08:54:55;;;;;;;13.27;12.17;;;28.40;95.10;;;;;;5034614;28;20435;-76
2022/08/25 08:57:28;;;;;;;12.37;11.27;;;28.40;95.10;;;;;;5034289;28;20458;-76
2022/08/25 09:00:01;;;;;;;12.97;11.67;;;28.50;95.20;;;;;;5035535;28;20430;-76
2022/08/25 09:02:35;;;;;;;13.67;11.93;;;28.50;95.10;;;;;;5035389;28;20940;-76
2022/08/25 09:05:19;;;;;;;12.07;11.07;;;28.50;95.10;;;;;;5035530;28;20419;-76
2022/08/25 09:07:50;;;;;;;12.27;11.20;;;28.60;95.10;;;;;;5035814;28;20833;-76
2022/08/25 09:10:26;;;;;;;11.93;10.83;;;28.60;95.10;;;;;;5035825;28;20446;-76
2022/08/25 09:13:02;;;;;;;13.07;11.77;;;28.80;95.00;;;;;;5035004;28;20531;-76
2022/08/25 09:18:46;;;;;;;14.03;12.50;;;28.80;94.70;;;;;;5033674;28;20473;-75
2022/08/25 09:21:29;;;;;;;11.93;10.90;;;28.90;94.70;;;;;;5033585;28;20817;-75
2022/08/25 09:24:28;;;;;;;12.60;11.70;;;28.90;94.50;;;;;;5034246;28;20454;-76
2022/08/25 09:27:08;;;;;;;13.17;11.93;;;28.90;94.30;;;;;;5035246;28;20466;-76
2022/08/25 09:29:49;;;;;;;13.80;12.40;;;29.00;94.20;;;;;;5034539;28;21023;-77
2022/08/25 09:32:17;;;;;;;11.43;10.47;;;29.00;94.10;;;;;;5034486;28;20541;-77
2022/08/25 09:34:54;;;;;;;12.47;11.30;;;29.00;94.10;;;;;;5036223;28;20657;-77
2022/08/25 09:37:24;;;;;;;11.47;10.33;;;29.10;94.00;;;;;;5035770;28;20461;-77
2022/08/25 09:39:55;;;;;;;11.80;10.90;;;29.10;94.20;;;;;;5034651;28;21000;-76
2022/08/25 09:42:47;;;;;;;11.30;10.30;;;29.20;94.10;;;;;;5035000;28;20536;-76
2022/08/25 09:45:30;;;;;;;12.27;11.10;;;29.30;93.80;;;;;;5035543;28;20439;-75
2022/08/25 09:47:58;;;;;;;15.00;11.37;;;29.30;93.70;;;;;;5034476;28;20536;-76
2022/08/25 09:50:31;;;;;;;11.13;9.60;;;29.40;93.50;;;;;;5034575;28;20523;-76
2022/08/25 09:53:14;;;;;;;10.93;9.80;;;29.40;93.40;;;;;;5034464;28;20433;-75
2022/08/25 09:55:56;;;;;;;10.80;9.80;;;29.40;93.20;;;;;;5034365;28;20487;-76
2022/08/25 09:58:28;;;;;;;10.40;9.50;;;29.50;93.20;;;;;;5034760;28;20461;-76
2022/08/25 10:01:13;;;;;;;11.33;10.50;;;29.60;92.90;;;;;;5032957;28;20933;-76
2022/08/25 10:04:04;;;;;;;10.07;9.37;;;29.60;92.70;;;;;;5034329;28;20424;-76
2022/08/25 10:06:42;;;;;;;10.10;9.20;;;29.60;92.50;;;;;;5030831;28;20534;-76
2022/08/25 10:09:23;;;;;;;9.50;8.70;;;29.60;92.50;;;;;;5032694;28;20474;-76
2022/08/25 10:11:52;;;;;;;10.63;9.30;;;29.70;92.50;;;;;;5033925;28;20415;-75
2022/08/25 10:14:34;;;;;;;11.03;10.20;;;29.60;92.20;;;;;;5033859;28;20836;-76
2022/08/25 10:17:14;;;;;;;10.33;9.30;;;29.70;92.00;;;;;;5032519;28;20447;-76
2022/08/25 10:19:43;;;;;;;9.53;8.60;;;29.70;91.70;;;;;;5034032;28;20419;-76
2022/08/25 10:22:23;;;;;;;9.43;8.63;;;29.70;91.40;;;;;;5032422;28;20455;-77
2022/08/25 10:24:54;;;;;;;9.63;8.80;;;29.80;91.40;;;;;;5034103;28;20455;-76
2022/08/25 10:27:30;;;;;;;10.00;9.13;;;29.80;91.30;;;;;;5033581;28;20570;-76
2022/08/25 10:30:11;;;;;;;9.63;8.63;;;29.90;91.00;;;;;;5034016;28;20522;-76
2022/08/25 10:32:55;;;;;;;9.00;8.10;;;29.90;90.80;;;;;;5033626;28;20438;-76
2022/08/25 10:35:28;;;;;;;9.30;8.30;;;29.90;90.60;;;;;;5033635;28;20423;-76
2022/08/25 10:38:10;;;;;;;10.30;9.40;;;29.90;90.30;;;;;;5033902;28;20524;-77
2022/08/25 10:40:45;;;;;;;9.40;8.50;;;29.90;90.20;;;;;;5036087;28;20419;-76
2022/08/25 10:43:24;;;;;;;10.97;9.97;;;30.00;90.00;;;;;;5035462;28;20437;-76
2022/08/25 10:46:03;;;;;;;9.60;8.90;;;29.90;90.00;;;;;;5034059;28;20455;-77
2022/08/25 10:48:58;;;;;;;11.43;9.47;;;29.90;90.10;;;;;;5035364;28;20614;-77
2022/08/25 10:51:50;;;;;;;11.30;9.00;;;29.90;90.10;;;;;;5037513;28;20438;-79
2022/08/25 10:54:31;;;;;;;9.90;9.13;;;29.80;90.10;;;;;;5036421;28;20455;-77
2022/08/25 10:57:08;;;;;;;9.87;9.07;;;29.80;90.20;;;;;;5034002;28;20415;-77
2022/08/25 11:00:00;;;;;;;9.77;8.80;;;29.80;90.00;;;;;;5033998;28;20427;-76
2022/08/25 11:02:59;;;;;;;9.97;8.83;;;29.80;89.80;;;;;;5032298;28;20451;-76
2022/08/25 11:05:35;;;;;;;9.70;8.27;;;29.70;90.00;;;;;;5033383;28;20855;-75
2022/08/25 11:08:10;;;;;;;9.30;8.50;;;29.70;90.00;;;;;;5031883;28;20471;-74
2022/08/25 11:10:44;;;;;;;9.03;8.30;;;29.70;89.80;;;;;;5032240;28;20442;-75
2022/08/25 11:13:22;;;;;;;9.43;8.60;;;29.70;90.00;;;;;;5033627;28;20826;-75
2022/08/25 11:15:58;;;;;;;9.43;8.53;;;29.70;89.40;;;;;;5033976;28;20422;-76
2022/08/25 11:18:51;;;;;;;9.53;8.57;;;29.70;89.20;;;;;;5033272;28;20513;-76
2022/08/25 11:21:25;;;;;;;9.57;8.70;;;29.70;89.00;;;;;;5033591;28;20458;-75
2022/08/25 11:23:59;;;;;;;8.23;7.53;;;29.70;88.80;;;;;;5033388;28;20454;-76
2022/08/25 11:26:33;;;;;;;9.40;8.60;;;29.60;88.70;;;;;;5033141;28;20468;-75
2022/08/25 11:29:09;;;;;;;9.00;8.20;;;29.60;88.70;;;;;;5033276;28;20474;-78
2022/08/25 11:31:43;;;;;;;9.87;8.87;;;29.60;88.40;;;;;;5033417;28;20419;-76
2022/08/25 11:34:17;;;;;;;9.40;8.10;;;29.60;88.50;;;;;;5032145;28;20804;-75
2022/08/25 11:36:52;;;;;;;9.10;8.30;;;29.70;88.40;;;;;;5033534;28;20427;-76
2022/08/25 11:39:34;;;;;;;9.80;7.77;;;29.80;88.10;;;;;;5033534;28;20426;-76
2022/08/25 11:42:16;;;;;;;8.10;7.40;;;29.90;88.10;;;;;;5033380;28;20501;-76
2022/08/25 11:44:52;;;;;;;9.03;6.93;;;30.00;88.10;;;;;;5033205;28;20438;-75
2022/08/25 11:47:55;;;;;;;8.20;7.40;;;30.00;87.60;;;;;;5035837;28;21043;-76
2022/08/25 11:50:31;;;;;;;8.57;7.77;;;30.10;87.40;;;;;;5035217;28;20849;-75
2022/08/25 11:53:21;;;;;;;8.57;7.67;;;30.10;87.10;;;;;;5035520;28;20447;-76
2022/08/25 11:55:57;;;;;;;9.83;9.03;;;30.00;86.80;;;;;;5035258;28;20442;-76
2022/08/25 11:58:48;;;;;;;9.30;8.00;;;30.10;87.10;;;;;;5036894;28;20558;-76
2022/08/25 12:02:02;;;;;;;8.47;7.60;;;30.10;87.00;;;;;;5036648;28;20447;-77
2022/08/25 12:04:38;;;;;;;8.00;7.30;;;30.20;87.00;;;;;;5040122;28;20960;-76
2022/08/25 12:07:20;;;;;;;10.03;8.03;;;30.20;86.80;;;;;;5037606;28;20415;-76
2022/08/25 12:10:09;;;;;;;8.67;7.90;;;30.30;86.70;;;;;;5037014;28;20462;-76
2022/08/25 12:12:55;;;;;;;8.83;8.07;;;30.30;86.60;;;;;;5036474;28;20427;-75
2022/08/25 12:15:25;;;;;;;9.10;8.20;;;30.20;86.50;;;;;;5036415;28;20521;-75
2022/08/25 12:18:09;;;;;;;9.53;8.33;;;30.20;86.50;;;;;;5036871;28;20463;-75
2022/08/25 12:21:09;;;;;;;8.77;7.97;;;30.20;86.30;;;;;;5036432;28;20419;-75
2022/08/25 12:23:41;;;;;;;9.17;8.37;;;30.20;86.00;;;;;;5002986;28;20550;-75
2022/08/25 12:26:23;;;;;;;8.63;7.83;;;30.20;86.20;;;;;;5036044;28;20780;-75
2022/08/25 12:29:05;;;;;;;8.90;8.17;;;30.20;85.90;;;;;;5035868;28;20975;-76
2022/08/25 12:32:05;;;;;;;9.50;8.00;;;30.10;86.10;;;;;;5036331;28;20506;-76
2022/08/25 12:34:46;;;;;;;9.87;8.97;;;30.10;85.20;;;;;;5033211;28;20869;-75
2022/08/25 12:37:17;;;;;;;8.43;7.70;;;30.00;85.30;;;;;;5036241;28;20799;-75
2022/08/25 12:39:58;;;;;;;9.67;8.77;;;30.00;86.00;;;;;;5036461;28;20526;-75
2022/08/25 12:42:31;;;;;;;8.67;7.87;;;30.00;85.20;;;;;;5035864;28;20423;-75
2022/08/25 12:45:14;;;;;;;9.50;8.57;;;30.00;85.40;;;;;;5036018;28;20423;-76
2022/08/25 12:47:47;;;;;;;8.33;7.53;;;30.00;85.70;;;;;;5035716;28;20517;-76
2022/08/25 12:50:40;;;;;;;8.07;7.40;;;30.10;85.20;;;;;;5035503;28;20455;-75
2022/08/25 12:53:15;;;;;;;8.73;8.00;;;30.00;84.40;;;;;;5035847;28;20425;-75
2022/08/25 12:55:49;;;;;;;8.27;7.60;;;30.00;84.30;;;;;;5035587;28;20426;-75
2022/08/25 12:58:17;;;;;;;8.17;7.53;;;30.10;84.30;;;;;;5035145;28;20459;-76
2022/08/25 13:01:05;;;;;;;8.70;7.83;;;30.10;84.60;;;;;;5035211;28;20479;-75
2022/08/25 13:03:58;;;;;;;8.27;7.60;;;30.10;84.70;;;;;;5035179;28;20507;-75
2022/08/25 13:06:40;;;;;;;8.37;7.57;;;30.20;84.80;;;;;;5035559;28;20423;-75
2022/08/25 13:09:38;;;;;;;8.13;7.33;;;30.20;84.60;;;;;;5035040;28;20475;-75
2022/08/25 13:12:12;;;;;;;7.87;7.03;;;30.30;84.60;;;;;;5035108;28;20423;-75
2022/08/25 13:14:43;;;;;;;9.03;6.40;;;30.30;84.30;;;;;;5034954;28;20450;-75
2022/08/25 13:17:24;;;;;;;8.60;7.70;;;30.30;83.80;;;;;;5039312;28;20903;-75
2022/08/25 13:19:52;;;;;;;8.57;7.83;;;30.30;83.50;;;;;;5035620;28;20450;-75
2022/08/25 13:22:22;;;;;;;8.30;7.53;;;30.30;83.60;;;;;;5034768;28;20462;-75
2022/08/25 13:24:50;;;;;;;8.47;7.57;;;30.30;83.50;;;;;;5033641;28;20467;-76